Time;durP1;ratioP1;P1;durP2;ratioP2;P2;SDS_P1;SDS_P2;PMS_P1;PMS_P2;Temp;Humidity;BMP_temperature;BMP_pressure;BME280_temperature;BME280_humidity;BME280_pressure;Samples;Min_cycle;Max_cycle;Signal;HPM_P1;HPM_P2
2021/09/06 00:01:26;;;;;;;19.03;17.63;;;15.60;99.90;;;;;;4916415;29;20465;-71
2021/09/06 00:03:53;;;;;;;20.90;19.60;;;15.60;99.90;;;;;;4916029;29;20454;-71
2021/09/06 00:06:20;;;;;;;19.80;18.50;;;15.60;99.90;;;;;;4916232;29;20451;-71
2021/09/06 00:08:48;;;;;;;21.17;19.70;;;15.60;99.90;;;;;;4916300;29;20450;-72
2021/09/06 00:11:14;;;;;;;19.03;17.83;;;15.60;99.90;;;;;;4916064;29;20470;-71
2021/09/06 00:13:42;;;;;;;21.87;20.33;;;15.50;99.90;;;;;;4915925;29;20469;-71
2021/09/06 00:16:09;;;;;;;20.20;18.90;;;15.50;99.90;;;;;;4914256;29;20474;-71
2021/09/06 00:18:37;;;;;;;19.90;18.60;;;15.50;99.90;;;;;;4916223;29;20454;-72
2021/09/06 00:21:06;;;;;;;20.27;19.07;;;15.50;99.90;;;;;;4915965;29;20461;-71
2021/09/06 00:23:33;;;;;;;20.97;19.73;;;15.40;99.90;;;;;;4915877;29;20486;-71
2021/09/06 00:26:01;;;;;;;21.20;19.77;;;15.40;99.90;;;;;;4915936;29;20450;-71
2021/09/06 00:28:28;;;;;;;22.57;21.03;;;15.40;99.90;;;;;;4915702;29;20518;-71
2021/09/06 00:30:55;;;;;;;23.23;21.43;;;15.40;99.90;;;;;;4916068;29;20510;-71
2021/09/06 00:33:21;;;;;;;22.77;21.27;;;15.40;99.90;;;;;;4915729;29;20903;-71
2021/09/06 00:35:48;;;;;;;21.93;20.23;;;15.40;99.90;;;;;;4915672;29;20513;-72
2021/09/06 00:38:16;;;;;;;20.00;18.60;;;15.40;99.90;;;;;;4915429;29;20810;-71
2021/09/06 00:40:44;;;;;;;21.80;20.00;;;15.40;99.90;;;;;;4915555;29;20459;-70
2021/09/06 00:43:12;;;;;;;20.20;18.87;;;15.40;99.90;;;;;;4915756;29;20502;-71
2021/09/06 00:45:39;;;;;;;21.10;19.50;;;15.30;99.90;;;;;;4915775;29;20458;-71
2021/09/06 00:48:07;;;;;;;22.97;20.87;;;15.30;99.90;;;;;;4915413;29;21024;-71
2021/09/06 00:50:34;;;;;;;20.60;19.13;;;15.20;99.90;;;;;;4915298;29;20458;-70
2021/09/06 00:53:01;;;;;;;21.33;19.93;;;15.20;99.90;;;;;;4915321;29;20458;-70
2021/09/06 00:55:28;;;;;;;22.80;21.17;;;15.20;99.90;;;;;;4915267;29;20517;-70
2021/09/06 00:57:55;;;;;;;21.63;20.13;;;15.20;99.90;;;;;;4913765;29;20537;-70
2021/09/06 01:00:23;;;;;;;21.77;20.13;;;15.20;99.90;;;;;;4915487;29;20517;-70
2021/09/06 01:02:50;;;;;;;22.33;20.53;;;15.10;99.90;;;;;;4915113;29;20849;-71
2021/09/06 01:05:17;;;;;;;22.80;21.13;;;15.10;99.90;;;;;;4915299;29;20454;-70
2021/09/06 01:07:44;;;;;;;22.73;21.33;;;15.10;99.90;;;;;;4915399;29;20458;-71
2021/09/06 01:10:13;;;;;;;23.43;21.47;;;15.10;99.90;;;;;;4915080;29;20517;-72
2021/09/06 01:12:40;;;;;;;21.97;20.47;;;15.10;99.90;;;;;;4915204;29;20454;-71
2021/09/06 01:15:09;;;;;;;22.63;21.10;;;15.00;99.90;;;;;;4914962;29;21029;-72
2021/09/06 01:17:38;;;;;;;22.73;21.23;;;15.00;99.90;;;;;;4914963;29;20490;-71
2021/09/06 01:20:06;;;;;;;23.27;21.60;;;15.00;99.90;;;;;;4915244;29;20446;-72
2021/09/06 01:22:32;;;;;;;23.00;21.40;;;15.00;99.90;;;;;;4914758;29;21178;-72
2021/09/06 01:24:59;;;;;;;23.00;21.20;;;14.90;99.90;;;;;;4914977;29;20839;-72
2021/09/06 01:27:27;;;;;;;22.57;20.97;;;14.90;99.90;;;;;;4915026;29;20458;-72
2021/09/06 01:29:54;;;;;;;22.50;20.77;;;14.90;99.90;;;;;;4915030;29;20517;-72
2021/09/06 01:32:21;;;;;;;21.67;20.20;;;14.90;99.90;;;;;;4923142;29;20508;-71
2021/09/06 01:34:47;;;;;;;23.63;21.57;;;14.90;99.90;;;;;;4941603;29;20477;-71
2021/09/06 01:37:14;;;;;;;23.17;21.50;;;14.90;99.90;;;;;;4941541;28;20452;-71
2021/09/06 01:39:41;;;;;;;24.73;22.87;;;14.80;99.90;;;;;;4943257;29;20445;-71
2021/09/06 01:42:08;;;;;;;24.90;22.90;;;14.80;99.90;;;;;;4941567;28;20462;-72
2021/09/06 01:44:36;;;;;;;25.17;23.37;;;14.70;99.90;;;;;;4941524;28;20445;-72
2021/09/06 01:47:03;;;;;;;22.43;20.77;;;14.70;99.90;;;;;;4942984;29;20443;-72
2021/09/06 01:49:30;;;;;;;22.23;20.77;;;14.70;99.90;;;;;;4941857;28;20851;-70
2021/09/06 01:51:56;;;;;;;22.87;21.13;;;14.70;99.90;;;;;;4941145;28;20947;-70
2021/09/06 01:54:23;;;;;;;23.30;21.60;;;14.70;99.90;;;;;;4942943;28;20982;-70
2021/09/06 01:56:50;;;;;;;22.47;20.87;;;14.70;99.90;;;;;;4941509;28;21019;-70
2021/09/06 01:59:16;;;;;;;24.07;22.17;;;14.70;99.90;;;;;;4941177;28;20793;-70
2021/09/06 02:01:44;;;;;;;23.60;21.77;;;14.70;99.90;;;;;;4942822;28;20440;-70
2021/09/06 02:04:11;;;;;;;22.00;20.50;;;14.60;99.90;;;;;;4945836;28;20461;-70
2021/09/06 02:06:38;;;;;;;23.90;22.30;;;14.50;99.90;;;;;;4945071;29;20452;-72
2021/09/06 02:09:05;;;;;;;23.97;22.27;;;14.50;99.90;;;;;;4942310;29;20449;-71
2021/09/06 02:11:31;;;;;;;22.73;21.20;;;14.40;99.90;;;;;;4945437;29;20523;-71
2021/09/06 02:13:59;;;;;;;24.07;22.00;;;14.40;99.90;;;;;;4946311;28;20450;-71
2021/09/06 02:16:25;;;;;;;23.13;21.63;;;14.40;99.90;;;;;;4944599;29;20496;-71
2021/09/06 02:18:54;;;;;;;24.80;23.20;;;14.40;99.90;;;;;;4945414;29;20555;-71
2021/09/06 02:21:21;;;;;;;24.80;23.13;;;14.30;99.90;;;;;;4946152;28;20802;-71
2021/09/06 02:23:47;;;;;;;23.80;22.30;;;14.30;99.90;;;;;;4945028;29;20879;-71
2021/09/06 02:26:14;;;;;;;23.00;21.33;;;14.30;99.90;;;;;;4944728;28;20451;-71
2021/09/06 02:28:41;;;;;;;24.10;22.30;;;14.30;99.90;;;;;;4946091;29;20449;-71
2021/09/06 02:31:07;;;;;;;23.57;21.97;;;14.30;99.90;;;;;;4944760;28;20470;-71
2021/09/06 02:33:34;;;;;;;23.33;21.90;;;14.30;99.90;;;;;;4944775;29;21026;-71
2021/09/06 02:36:02;;;;;;;24.13;22.23;;;14.20;99.90;;;;;;4952308;29;21049;-71
2021/09/06 02:38:29;;;;;;;22.37;20.90;;;14.20;99.90;;;;;;4955881;28;20460;-71
2021/09/06 02:40:56;;;;;;;24.57;22.93;;;14.20;99.90;;;;;;4955960;28;20452;-72
2021/09/06 02:43:22;;;;;;;22.77;21.17;;;14.20;99.90;;;;;;4956047;28;20460;-71
2021/09/06 02:45:49;;;;;;;23.17;21.57;;;14.20;99.90;;;;;;4955853;29;20452;-70
2021/09/06 02:48:16;;;;;;;23.40;21.90;;;14.10;99.90;;;;;;4955663;29;20464;-71
2021/09/06 02:50:42;;;;;;;21.90;20.50;;;14.10;99.90;;;;;;4955893;28;20460;-71
2021/09/06 02:53:10;;;;;;;24.83;23.23;;;14.10;99.90;;;;;;4955824;28;20467;-71
2021/09/06 02:55:37;;;;;;;25.20;23.17;;;14.00;99.90;;;;;;4955437;28;20831;-71
2021/09/06 02:58:04;;;;;;;25.07;23.27;;;14.00;99.90;;;;;;4955091;28;20961;-71
2021/09/06 03:00:30;;;;;;;24.23;22.73;;;13.90;99.90;;;;;;4954931;29;20793;-70
2021/09/06 03:02:57;;;;;;;24.30;22.70;;;13.90;99.90;;;;;;4956398;29;20464;-71
2021/09/06 03:05:24;;;;;;;23.33;21.80;;;13.90;99.90;;;;;;4957520;28;20531;-70
2021/09/06 03:07:50;;;;;;;23.93;22.30;;;13.80;99.90;;;;;;4957148;28;20444;-70
2021/09/06 03:10:18;;;;;;;25.37;23.43;;;13.80;99.90;;;;;;4955540;28;20865;-70
2021/09/06 03:12:45;;;;;;;25.03;23.23;;;13.80;99.90;;;;;;4954440;28;20958;-70
2021/09/06 03:15:12;;;;;;;23.00;21.60;;;13.80;99.90;;;;;;4955015;28;20904;-70
2021/09/06 03:17:39;;;;;;;23.70;22.03;;;13.80;99.90;;;;;;4954724;29;20488;-70
2021/09/06 03:20:07;;;;;;;24.97;23.17;;;13.80;99.90;;;;;;4954786;28;20468;-71
2021/09/06 03:22:34;;;;;;;23.73;22.30;;;13.80;99.90;;;;;;4954648;28;20461;-70
2021/09/06 03:25:01;;;;;;;24.17;22.47;;;13.80;99.90;;;;;;4954125;28;21116;-70
2021/09/06 03:27:29;;;;;;;25.37;23.67;;;13.70;99.90;;;;;;4954752;29;20448;-70
2021/09/06 03:29:55;;;;;;;25.00;23.20;;;13.70;99.90;;;;;;4954694;29;20515;-70
2021/09/06 03:32:22;;;;;;;26.63;24.67;;;13.60;99.90;;;;;;4954304;28;20452;-71
2021/09/06 03:34:49;;;;;;;25.30;23.50;;;13.60;99.90;;;;;;4954173;28;20566;-71
2021/09/06 03:37:16;;;;;;;25.40;23.40;;;13.60;99.90;;;;;;4950744;28;20464;-71
2021/09/06 03:39:42;;;;;;;25.50;23.70;;;13.50;99.90;;;;;;4954420;28;20515;-70
2021/09/06 03:42:09;;;;;;;25.17;22.73;;;13.50;99.90;;;;;;4954254;29;20452;-71
2021/09/06 03:44:37;;;;;;;25.07;23.03;;;13.50;99.90;;;;;;4954462;28;20457;-71
2021/09/06 03:47:04;;;;;;;26.17;24.17;;;13.50;99.90;;;;;;4954343;28;20939;-71
2021/09/06 03:49:31;;;;;;;24.43;22.47;;;13.50;99.90;;;;;;4954158;28;20456;-70
2021/09/06 03:51:57;;;;;;;26.53;24.60;;;13.50;99.90;;;;;;4954503;29;20461;-70
2021/09/06 03:54:24;;;;;;;25.70;23.80;;;13.40;99.90;;;;;;4954196;28;20623;-70
2021/09/06 03:56:51;;;;;;;25.17;23.00;;;13.40;99.90;;;;;;4954137;28;20858;-70
2021/09/06 03:59:19;;;;;;;24.10;22.43;;;13.40;99.90;;;;;;4954032;28;20639;-71
2021/09/06 04:01:48;;;;;;;24.07;22.37;;;13.40;99.90;;;;;;4953973;28;20455;-72
2021/09/06 04:04:14;;;;;;;24.07;22.47;;;13.40;99.90;;;;;;4953934;28;20475;-71
2021/09/06 04:06:41;;;;;;;26.03;24.30;;;13.40;99.90;;;;;;4954113;28;20507;-72
2021/09/06 04:09:08;;;;;;;26.63;24.53;;;13.40;99.90;;;;;;4954038;29;20467;-71
2021/09/06 04:11:34;;;;;;;27.17;25.20;;;13.40;99.90;;;;;;4953711;28;20448;-72
2021/09/06 04:14:01;;;;;;;28.43;26.37;;;13.40;99.90;;;;;;4953819;28;20456;-71
2021/09/06 04:16:28;;;;;;;28.63;26.20;;;13.40;99.90;;;;;;4953356;28;20604;-71
2021/09/06 04:18:56;;;;;;;25.83;23.73;;;13.40;99.90;;;;;;4953871;28;20464;-72
2021/09/06 04:21:22;;;;;;;25.40;23.43;;;13.40;99.90;;;;;;4953928;28;20468;-71
2021/09/06 04:23:49;;;;;;;23.90;22.30;;;13.40;99.90;;;;;;4953785;28;20512;-71
2021/09/06 04:26:16;;;;;;;25.97;23.90;;;13.30;99.90;;;;;;4952815;28;20456;-70
2021/09/06 04:28:42;;;;;;;24.40;22.70;;;13.30;99.90;;;;;;4953590;29;20457;-70
2021/09/06 04:31:09;;;;;;;26.83;24.83;;;13.30;99.90;;;;;;4953571;28;20460;-71
2021/09/06 04:33:36;;;;;;;26.07;23.37;;;13.30;99.90;;;;;;4953785;28;20456;-70
2021/09/06 04:36:04;;;;;;;24.83;22.90;;;13.40;99.90;;;;;;4953403;28;20488;-70
2021/09/06 04:38:31;;;;;;;25.33;23.40;;;13.30;99.90;;;;;;4953374;29;20525;-71
2021/09/06 04:40:57;;;;;;;24.23;22.50;;;13.30;99.90;;;;;;4953353;29;20456;-71
2021/09/06 04:43:24;;;;;;;24.73;22.53;;;13.30;99.90;;;;;;4953375;28;20449;-71
2021/09/06 04:45:51;;;;;;;24.37;22.47;;;13.30;99.90;;;;;;4953215;28;20519;-71
2021/09/06 04:48:17;;;;;;;24.87;23.07;;;13.30;99.90;;;;;;4953358;28;20814;-70
2021/09/06 04:50:44;;;;;;;25.37;23.37;;;13.30;99.90;;;;;;4953210;28;20492;-70
2021/09/06 04:53:12;;;;;;;25.23;23.20;;;13.30;99.90;;;;;;4953168;28;20452;-70
2021/09/06 04:55:39;;;;;;;24.87;23.17;;;13.20;99.90;;;;;;4953052;28;20499;-70
2021/09/06 04:58:06;;;;;;;26.47;24.13;;;13.30;99.90;;;;;;4953281;29;20453;-71
2021/09/06 05:00:33;;;;;;;28.57;25.87;;;13.30;99.90;;;;;;4952751;28;20515;-71
2021/09/06 05:02:59;;;;;;;28.27;26.07;;;13.20;99.90;;;;;;4952900;28;20460;-70
2021/09/06 05:05:26;;;;;;;27.77;25.63;;;13.20;99.90;;;;;;4953300;28;20448;-71
2021/09/06 05:07:53;;;;;;;25.93;23.93;;;13.30;99.90;;;;;;4953144;28;20467;-72
2021/09/06 05:10:21;;;;;;;27.80;25.40;;;13.30;99.90;;;;;;4953090;29;20464;-72
2021/09/06 05:12:48;;;;;;;26.60;24.63;;;13.30;99.90;;;;;;4952444;28;20740;-71
2021/09/06 05:15:14;;;;;;;29.17;26.33;;;13.30;99.90;;;;;;4952794;28;20484;-71
2021/09/06 05:17:41;;;;;;;28.00;25.70;;;13.30;99.90;;;;;;4952744;28;20481;-71
2021/09/06 05:20:08;;;;;;;30.80;28.30;;;13.30;99.90;;;;;;4953198;28;20479;-72
2021/09/06 05:22:35;;;;;;;28.63;26.23;;;13.40;99.90;;;;;;4952740;28;20456;-71
2021/09/06 05:25:01;;;;;;;28.33;26.03;;;13.40;99.90;;;;;;4953006;29;20903;-72
2021/09/06 05:27:29;;;;;;;30.80;28.10;;;13.40;99.90;;;;;;4952631;28;20859;-72
2021/09/06 05:29:56;;;;;;;28.10;25.87;;;13.40;99.90;;;;;;4952414;29;20460;-72
2021/09/06 05:32:24;;;;;;;31.77;28.90;;;13.40;99.90;;;;;;4952964;28;20503;-72
2021/09/06 05:34:50;;;;;;;29.40;26.73;;;13.50;99.90;;;;;;4952858;28;20463;-72
2021/09/06 05:37:17;;;;;;;28.50;26.10;;;13.50;99.90;;;;;;4951500;28;20497;-71
2021/09/06 05:39:44;;;;;;;26.30;24.20;;;13.50;99.90;;;;;;4952623;28;20457;-71
2021/09/06 05:42:11;;;;;;;27.53;24.97;;;13.60;99.90;;;;;;4952915;29;20519;-70
2021/09/06 05:44:39;;;;;;;26.33;23.93;;;13.70;99.90;;;;;;4952756;29;20456;-71
2021/09/06 05:47:06;;;;;;;24.90;22.90;;;14.00;99.90;;;;;;4952689;28;20822;-70
2021/09/06 05:49:33;;;;;;;23.70;21.83;;;14.40;99.90;;;;;;4952501;28;21028;-71
2021/09/06 05:52:00;;;;;;;22.90;21.03;;;14.80;99.90;;;;;;4952181;28;20456;-71
2021/09/06 05:54:26;;;;;;;23.90;22.00;;;15.10;99.90;;;;;;4952580;29;20973;-71
2021/09/06 05:56:53;;;;;;;24.60;22.67;;;15.30;99.90;;;;;;4952395;28;20492;-71
2021/09/06 05:59:20;;;;;;;23.70;22.00;;;15.40;99.90;;;;;;4952685;28;20810;-71
2021/09/06 06:01:48;;;;;;;21.63;19.63;;;15.60;99.90;;;;;;4952474;29;21166;-72
2021/09/06 06:04:14;;;;;;;21.90;20.40;;;15.90;99.90;;;;;;4952451;28;21006;-71
2021/09/06 06:06:41;;;;;;;23.63;21.30;;;16.10;99.90;;;;;;4952671;29;20509;-71
2021/09/06 06:09:08;;;;;;;25.50;23.13;;;16.40;99.90;;;;;;4952477;28;20460;-72
2021/09/06 06:11:37;;;;;;;25.17;22.63;;;16.40;99.90;;;;;;4952163;28;20452;-71
2021/09/06 06:14:04;;;;;;;22.70;20.90;;;16.70;99.90;;;;;;4952354;28;20464;-72
2021/09/06 06:16:31;;;;;;;25.50;23.30;;;17.00;99.90;;;;;;4951508;28;20504;-72
2021/09/06 06:18:59;;;;;;;23.53;21.67;;;17.30;99.90;;;;;;4952298;29;20456;-72
2021/09/06 06:21:27;;;;;;;20.80;19.20;;;17.40;99.90;;;;;;4952155;28;20460;-72
2021/09/06 06:23:53;;;;;;;22.60;20.90;;;17.70;99.90;;;;;;4952270;29;20490;-71
2021/09/06 06:26:20;;;;;;;24.27;22.43;;;18.00;99.90;;;;;;4952220;28;20457;-71
2021/09/06 06:28:47;;;;;;;24.13;21.77;;;18.20;99.90;;;;;;4952059;28;20457;-72
2021/09/06 06:31:14;;;;;;;25.33;22.73;;;18.20;99.90;;;;;;4952167;28;20448;-73
2021/09/06 06:33:40;;;;;;;24.33;22.43;;;18.20;99.90;;;;;;4951597;28;20955;-74
2021/09/06 06:36:08;;;;;;;24.67;22.67;;;18.20;99.90;;;;;;4951744;29;20848;-73
2021/09/06 06:38:36;;;;;;;23.00;21.20;;;18.40;99.90;;;;;;4951599;29;20904;-73
2021/09/06 06:41:04;;;;;;;23.03;21.17;;;18.50;99.90;;;;;;4951967;28;20460;-73
2021/09/06 06:43:31;;;;;;;22.70;21.00;;;18.70;99.90;;;;;;4951693;28;20567;-73
2021/09/06 06:45:58;;;;;;;22.90;20.90;;;19.00;99.90;;;;;;4952014;29;20939;-72
2021/09/06 06:48:24;;;;;;;22.27;20.27;;;19.20;99.90;;;;;;4953013;28;20495;-72
2021/09/06 06:50:51;;;;;;;22.37;20.60;;;19.10;99.90;;;;;;4955625;29;20456;-73
2021/09/06 06:53:19;;;;;;;21.60;19.47;;;19.20;99.90;;;;;;4955503;29;20448;-69
2021/09/06 06:55:46;;;;;;;22.10;20.30;;;19.50;99.90;;;;;;4955076;29;20593;-71
2021/09/06 06:58:12;;;;;;;20.90;19.50;;;19.50;99.90;;;;;;4955433;28;20452;-73
2021/09/06 07:00:39;;;;;;;20.00;18.60;;;19.60;99.90;;;;;;4955396;28;20939;-73
2021/09/06 07:03:06;;;;;;;20.17;18.67;;;19.90;99.90;;;;;;4955352;28;20512;-73
2021/09/06 07:05:32;;;;;;;23.07;21.30;;;19.90;99.90;;;;;;4954994;28;20460;-72
2021/09/06 07:07:59;;;;;;;22.10;20.53;;;20.20;99.90;;;;;;4955249;28;20818;-72
2021/09/06 07:10:27;;;;;;;22.10;20.70;;;20.90;99.90;;;;;;4955038;28;20449;-73
2021/09/06 07:12:54;;;;;;;21.87;20.17;;;21.20;99.90;;;;;;4955139;28;20464;-74
2021/09/06 07:15:21;;;;;;;21.03;19.70;;;21.40;99.90;;;;;;4955005;28;20468;-72
2021/09/06 07:17:47;;;;;;;22.70;21.30;;;21.30;99.90;;;;;;4954805;28;20489;-72
2021/09/06 07:20:14;;;;;;;20.30;18.90;;;21.20;99.90;;;;;;4955057;29;20448;-72
2021/09/06 07:22:42;;;;;;;21.00;19.70;;;21.50;99.90;;;;;;4955360;28;20460;-73
2021/09/06 07:25:10;;;;;;;20.90;19.40;;;21.90;99.90;;;;;;4955177;29;20489;-76
2021/09/06 07:27:38;;;;;;;19.37;18.17;;;22.00;99.90;;;;;;4955109;28;20449;-75
2021/09/06 07:30:06;;;;;;;21.27;19.77;;;21.70;99.90;;;;;;4954730;28;20524;-75
2021/09/06 07:32:32;;;;;;;20.93;19.27;;;21.40;99.90;;;;;;4954473;28;20859;-75
2021/09/06 07:34:59;;;;;;;23.87;19.37;;;21.40;99.90;;;;;;4954793;28;20449;-75
2021/09/06 07:37:26;;;;;;;19.13;18.03;;;21.70;99.90;;;;;;4954831;29;20551;-76
2021/09/06 07:39:52;;;;;;;18.33;17.13;;;22.30;99.90;;;;;;4955392;29;20440;-75
2021/09/06 07:42:19;;;;;;;18.70;17.60;;;22.40;99.90;;;;;;4954516;29;20463;-74
2021/09/06 07:44:47;;;;;;;20.70;19.20;;;22.20;99.90;;;;;;4954204;29;20650;-75
2021/09/06 07:47:14;;;;;;;21.33;19.57;;;22.20;99.90;;;;;;4956454;28;20453;-75
2021/09/06 07:49:41;;;;;;;22.33;20.70;;;22.80;99.90;;;;;;4956752;29;20453;-75
2021/09/06 07:52:08;;;;;;;21.00;19.70;;;22.80;99.90;;;;;;4955989;28;20508;-74
2021/09/06 07:54:35;;;;;;;20.67;19.43;;;22.60;99.90;;;;;;4954285;29;20480;-75
2021/09/06 07:57:02;;;;;;;20.77;19.47;;;22.80;99.90;;;;;;4953721;28;20840;-75
2021/09/06 07:59:28;;;;;;;20.80;19.50;;;23.10;99.90;;;;;;4953071;28;20449;-75
2021/09/06 08:01:56;;;;;;;19.90;18.60;;;23.50;99.60;;;;;;4953824;29;20460;-75
2021/09/06 08:04:23;;;;;;;20.20;19.00;;;23.80;98.70;;;;;;4954062;28;20460;-75
2021/09/06 08:06:50;;;;;;;20.70;19.10;;;24.00;97.70;;;;;;4953758;28;20460;-74
2021/09/06 08:09:16;;;;;;;20.97;19.50;;;24.00;97.70;;;;;;4938083;28;20852;-75
2021/09/06 08:11:46;;;;;;;22.10;20.67;;;24.50;97.40;;;;;;4934328;29;20460;-74
2021/09/06 08:14:12;;;;;;;19.77;18.67;;;24.90;96.60;;;;;;4934185;29;20481;-75
2021/09/06 08:16:39;;;;;;;21.10;19.70;;;25.10;96.20;;;;;;4934452;29;20652;-75
2021/09/06 08:19:07;;;;;;;20.70;19.40;;;25.30;95.70;;;;;;4934573;29;20461;-75
2021/09/06 08:21:34;;;;;;;22.33;20.67;;;25.60;95.30;;;;;;4934484;29;20932;-75
2021/09/06 08:24:01;;;;;;;20.40;19.03;;;26.00;93.90;;;;;;4934234;29;20465;-74
2021/09/06 08:26:28;;;;;;;21.47;20.17;;;26.60;93.20;;;;;;4934131;29;20450;-74
2021/09/06 08:28:55;;;;;;;21.27;20.03;;;26.50;92.90;;;;;;4934401;29;20863;-75
2021/09/06 08:31:22;;;;;;;22.43;20.70;;;26.50;93.00;;;;;;4934563;29;20861;-74
2021/09/06 08:33:49;;;;;;;21.07;19.67;;;27.10;92.30;;;;;;4934113;29;20539;-75
2021/09/06 08:36:17;;;;;;;20.67;19.57;;;27.50;90.80;;;;;;4934052;29;20545;-75
2021/09/06 08:38:43;;;;;;;20.43;19.10;;;27.40;90.70;;;;;;4934055;29;20461;-75
2021/09/06 08:41:10;;;;;;;18.50;17.50;;;27.60;90.30;;;;;;4934186;29;20457;-75
2021/09/06 08:43:38;;;;;;;20.23;19.10;;;27.70;90.40;;;;;;4934089;29;20512;-75
2021/09/06 08:46:05;;;;;;;21.03;19.67;;;28.10;89.50;;;;;;4932244;29;20833;-75
2021/09/06 08:48:31;;;;;;;20.60;19.30;;;28.70;87.60;;;;;;4933866;29;20936;-75
2021/09/06 08:50:58;;;;;;;19.93;18.97;;;28.90;86.10;;;;;;4933860;29;20449;-75
2021/09/06 08:53:26;;;;;;;22.33;20.50;;;28.90;85.20;;;;;;4934091;29;20454;-75
2021/09/06 08:55:55;;;;;;;21.27;19.90;;;28.60;86.20;;;;;;4934339;29;20449;-73
2021/09/06 08:58:22;;;;;;;21.37;20.23;;;29.30;84.60;;;;;;4933435;29;20501;-75
2021/09/06 09:00:51;;;;;;;21.70;20.20;;;29.30;83.60;;;;;;4932150;29;20464;-75
2021/09/06 09:03:19;;;;;;;21.60;20.30;;;29.60;83.00;;;;;;4932227;29;21176;-74
2021/09/06 09:06:00;;;;;;;22.03;20.70;;;29.80;81.80;;;;;;4930006;29;20465;-73
2021/09/06 09:08:28;;;;;;;22.07;20.87;;;30.60;79.20;;;;;;4932491;29;20533;-76
2021/09/06 09:11:00;;;;;;;23.97;22.40;;;31.30;76.30;;;;;;4932602;29;20579;-75
2021/09/06 09:13:30;;;;;;;22.60;21.20;;;31.70;74.60;;;;;;4933718;29;20461;-76
2021/09/06 09:15:57;;;;;;;21.87;20.47;;;32.30;70.80;;;;;;4933029;29;20481;-75
2021/09/06 09:18:26;;;;;;;21.67;20.50;;;32.80;69.20;;;;;;4933319;29;20493;-73
2021/09/06 09:20:59;;;;;;;21.10;20.00;;;33.40;67.80;;;;;;4933778;29;20454;-74
2021/09/06 09:23:37;;;;;;;21.73;20.53;;;34.20;63.80;;;;;;4933501;29;20463;-74
2021/09/06 09:26:04;;;;;;;22.50;21.23;;;34.10;62.80;;;;;;4933492;29;20836;-74
2021/09/06 09:28:32;;;;;;;21.37;20.07;;;34.60;60.70;;;;;;4933628;29;20508;-74
2021/09/06 09:31:06;;;;;;;20.70;19.80;;;35.50;59.00;;;;;;4933608;29;20461;-74
2021/09/06 09:33:43;;;;;;;22.53;21.33;;;35.30;59.00;;;;;;4932960;29;20704;-75
2021/09/06 09:36:10;;;;;;;23.20;21.90;;;35.80;57.60;;;;;;4933113;29;20453;-75
2021/09/06 09:38:39;;;;;;;23.00;21.60;;;35.60;56.70;;;;;;4933230;29;20492;-75
2021/09/06 09:41:13;;;;;;;22.50;21.20;;;35.60;57.10;;;;;;4933395;29;20864;-75
2021/09/06 09:43:41;;;;;;;22.20;21.00;;;35.20;58.30;;;;;;4933679;29;20456;-75
2021/09/06 09:46:07;;;;;;;22.60;21.30;;;35.50;57.90;;;;;;4933438;29;20449;-75
2021/09/06 09:48:34;;;;;;;22.50;21.00;;;35.30;57.20;;;;;;4932997;29;20866;-75
2021/09/06 09:51:02;;;;;;;22.97;21.80;;;35.90;57.80;;;;;;4932828;29;20453;-76
2021/09/06 09:53:30;;;;;;;23.00;21.90;;;36.00;56.40;;;;;;4933595;29;20557;-75
2021/09/06 09:55:59;;;;;;;23.33;22.03;;;36.30;56.00;;;;;;4933244;29;20461;-76
2021/09/06 09:58:26;;;;;;;23.27;21.97;;;36.50;55.50;;;;;;4933103;29;20548;-76
2021/09/06 10:00:53;;;;;;;22.30;20.90;;;36.90;54.00;;;;;;4932938;29;20445;-76
2021/09/06 10:03:25;;;;;;;23.43;21.93;;;37.10;53.50;;;;;;4932894;29;20460;-75
2021/09/06 10:05:52;;;;;;;23.00;21.37;;;37.60;52.50;;;;;;4932977;29;20924;-76
2021/09/06 10:08:19;;;;;;;22.63;21.53;;;38.00;51.40;;;;;;4932791;29;20534;-76
2021/09/06 10:10:47;;;;;;;22.13;21.13;;;37.80;51.10;;;;;;4932598;29;20461;-76
2021/09/06 10:13:16;;;;;;;21.43;20.43;;;37.70;49.80;;;;;;4933012;29;20804;-77
2021/09/06 10:15:45;;;;;;;24.40;22.87;;;37.70;49.50;;;;;;4932944;29;20839;-76
2021/09/06 10:18:16;;;;;;;23.70;22.30;;;37.60;49.60;;;;;;4932704;29;21022;-76
2021/09/06 10:20:43;;;;;;;22.17;20.73;;;38.10;48.60;;;;;;4932727;29;20469;-76
2021/09/06 10:23:12;;;;;;;22.00;20.80;;;38.00;47.90;;;;;;4933422;29;20835;-76
2021/09/06 10:25:40;;;;;;;24.03;22.63;;;37.80;49.00;;;;;;4936729;29;20457;-76
2021/09/06 10:28:09;;;;;;;23.83;22.47;;;38.10;48.10;;;;;;4936564;29;20622;-76
2021/09/06 10:30:39;;;;;;;22.40;21.20;;;38.30;47.80;;;;;;4936166;29;20449;-76
2021/09/06 10:33:07;;;;;;;22.10;20.90;;;37.70;48.10;;;;;;4936316;29;20492;-76
2021/09/06 10:35:35;;;;;;;21.90;20.90;;;37.20;47.70;;;;;;4936317;29;20460;-76
2021/09/06 10:38:05;;;;;;;21.07;20.07;;;36.50;49.40;;;;;;4936111;29;20720;-76
2021/09/06 10:40:34;;;;;;;21.93;20.83;;;36.90;48.30;;;;;;4935778;29;20963;-76
2021/09/06 10:43:12;;;;;;;21.03;19.70;;;36.40;48.20;;;;;;4935897;29;20795;-76
2021/09/06 10:45:42;;;;;;;22.53;21.13;;;36.70;48.10;;;;;;4936430;29;20457;-75
2021/09/06 10:48:08;;;;;;;22.30;20.67;;;36.50;47.50;;;;;;4936244;29;20445;-75
2021/09/06 10:50:37;;;;;;;22.10;21.00;;;36.90;47.40;;;;;;4935734;29;20468;-75
2021/09/06 10:53:04;;;;;;;23.93;22.70;;;36.40;47.10;;;;;;4935948;29;20453;-75
2021/09/06 10:55:31;;;;;;;23.50;22.30;;;36.30;47.00;;;;;;4936027;29;20456;-74
2021/09/06 10:58:00;;;;;;;21.20;20.20;;;36.60;47.40;;;;;;4936135;29;20516;-75
2021/09/06 11:00:26;;;;;;;22.53;21.43;;;37.30;46.50;;;;;;4936141;29;20465;-75
2021/09/06 11:02:54;;;;;;;22.27;20.97;;;37.80;44.50;;;;;;4936397;29;20457;-76
2021/09/06 11:05:23;;;;;;;22.40;21.40;;;38.00;44.20;;;;;;4936037;29;20453;-76
2021/09/06 11:07:50;;;;;;;22.37;21.27;;;36.20;43.70;;;;;;4936227;29;20465;-76
2021/09/06 11:10:20;;;;;;;22.03;20.43;;;34.80;46.30;;;;;;4935799;29;20460;-75
2021/09/06 11:12:55;;;;;;;21.40;20.30;;;34.20;47.30;;;;;;4935814;29;20572;-75
2021/09/06 11:15:26;;;;;;;21.60;20.50;;;33.00;49.90;;;;;;4935631;29;20487;-75
2021/09/06 11:17:59;;;;;;;21.10;20.10;;;33.10;50.90;;;;;;4935763;29;20504;-75
2021/09/06 11:20:26;;;;;;;21.03;19.93;;;32.70;48.00;;;;;;4935983;29;20453;-76
2021/09/06 11:22:53;;;;;;;19.80;18.90;;;32.30;49.20;;;;;;4936065;29;20464;-75
2021/09/06 11:25:26;;;;;;;21.13;19.90;;;32.20;48.30;;;;;;4935655;29;20504;-75
2021/09/06 11:27:54;;;;;;;19.47;18.60;;;31.90;49.50;;;;;;4935813;29;20476;-75
2021/09/06 11:30:23;;;;;;;21.07;19.97;;;31.60;48.80;;;;;;4935690;29;20501;-76
2021/09/06 11:32:50;;;;;;;20.53;19.47;;;31.40;50.30;;;;;;4935587;29;20593;-75
2021/09/06 11:35:20;;;;;;;21.40;20.30;;;31.70;46.70;;;;;;4935437;29;20453;-76
2021/09/06 11:37:49;;;;;;;21.43;20.17;;;30.90;48.20;;;;;;4935371;29;20571;-75
2021/09/06 11:40:16;;;;;;;20.27;19.27;;;30.90;49.10;;;;;;4935397;29;20460;-75
2021/09/06 11:42:43;;;;;;;20.07;18.97;;;32.50;47.90;;;;;;4935517;29;20959;-75
2021/09/06 11:45:11;;;;;;;22.60;21.37;;;33.00;47.10;;;;;;4935588;29;20461;-75
2021/09/06 11:47:38;;;;;;;21.00;19.90;;;33.20;45.70;;;;;;4935497;29;20860;-75
2021/09/06 11:50:09;;;;;;;22.37;21.27;;;33.10;45.00;;;;;;4935082;29;20454;-76
2021/09/06 11:52:40;;;;;;;20.40;19.40;;;31.80;47.70;;;;;;4935366;29;20844;-75
2021/09/06 11:55:12;;;;;;;20.83;19.83;;;31.90;48.30;;;;;;4935319;29;20458;-75
2021/09/06 11:57:39;;;;;;;20.50;19.40;;;32.70;48.80;;;;;;4935091;29;20489;-75
2021/09/06 12:00:07;;;;;;;20.70;19.70;;;33.00;47.50;;;;;;4935160;29;20464;-75
2021/09/06 12:02:34;;;;;;;21.97;20.87;;;33.20;47.50;;;;;;4935000;29;20457;-76
2021/09/06 12:05:08;;;;;;;21.17;20.17;;;34.10;46.60;;;;;;4934908;29;20568;-75
2021/09/06 12:07:47;;;;;;;20.73;19.73;;;34.00;45.70;;;;;;4934438;29;20513;-75
2021/09/06 12:10:25;;;;;;;21.83;20.53;;;33.90;45.80;;;;;;4934816;29;20467;-75
2021/09/06 12:12:58;;;;;;;20.10;19.10;;;33.10;47.40;;;;;;4934939;29;20488;-75
2021/09/06 12:15:24;;;;;;;21.23;20.23;;;32.50;47.50;;;;;;4934840;29;20505;-75
2021/09/06 12:17:51;;;;;;;20.90;19.90;;;33.10;47.50;;;;;;4934294;29;20501;-75
2021/09/06 12:20:19;;;;;;;22.30;21.10;;;33.70;48.00;;;;;;4934797;29;20532;-75
2021/09/06 12:22:55;;;;;;;20.63;19.63;;;34.30;46.90;;;;;;4934679;29;20505;-75
2021/09/06 12:25:25;;;;;;;21.63;20.63;;;34.10;45.40;;;;;;4934458;29;20587;-75
2021/09/06 12:27:51;;;;;;;19.93;18.90;;;33.20;47.40;;;;;;4934632;29;20537;-75
2021/09/06 12:30:18;;;;;;;20.70;19.53;;;33.20;47.90;;;;;;4934509;29;20785;-75